createdAt,value
2022-10-28T00:00:53.711Z,12.53
2022-10-28T00:03:21.583Z,10.03
2022-10-28T00:05:49.585Z,9.23
2022-10-28T00:08:17.449Z,8.13
2022-10-28T00:10:45.340Z,12.03
2022-10-28T00:13:13.192Z,10.97
2022-10-28T00:15:41.095Z,10.50
2022-10-28T00:18:11.374Z,8.77
2022-10-28T00:20:39.248Z,11.10
2022-10-28T00:23:07.142Z,16.43
2022-10-28T00:25:35.018Z,9.87
2022-10-28T00:28:02.898Z,9.40
2022-10-28T00:33:03.683Z,10.40
2022-10-28T00:35:33.910Z,11.10
2022-10-28T00:38:01.791Z,7.80
2022-10-28T00:40:29.683Z,10.70
2022-10-28T00:42:57.609Z,9.60
2022-10-28T00:45:25.909Z,8.10
2022-10-28T00:47:56.630Z,8.40
2022-10-28T00:50:38.295Z,7.37
2022-10-28T00:53:08.831Z,7.50
2022-10-28T00:55:37.532Z,9.63
2022-10-28T00:58:07.028Z,6.70
2022-10-28T01:00:34.959Z,6.67
2022-10-28T01:03:02.981Z,8.73
2022-10-28T01:05:32.562Z,7.30
2022-10-28T01:08:03.085Z,6.30
2022-10-28T01:10:45.130Z,10.63
2022-10-28T01:13:19.515Z,7.60
2022-10-28T01:15:52.791Z,6.60
2022-10-28T01:18:24.547Z,12.33
2022-10-28T01:21:09.324Z,6.70
2022-10-28T01:23:45.543Z,9.17
2022-10-28T01:26:37.742Z,6.77
2022-10-28T01:29:30.889Z,16.20
2022-10-28T01:32:03.981Z,13.97
2022-10-28T01:34:34.956Z,11.40
2022-10-28T01:37:11.726Z,18.93
2022-10-28T01:39:45.185Z,12.30
2022-10-28T01:42:16.583Z,8.53
2022-10-28T01:44:50.097Z,8.97
2022-10-28T01:47:22.419Z,7.97
2022-10-28T01:49:53.996Z,7.53
2022-10-28T01:52:26.152Z,6.60
2022-10-28T01:54:57.313Z,7.00
2022-10-28T01:57:26.872Z,6.33
2022-10-28T01:59:54.868Z,11.33
2022-10-28T02:02:24.320Z,7.50
2022-10-28T02:04:52.190Z,10.50
2022-10-28T02:07:20.107Z,6.53
2022-10-28T02:10:04.064Z,8.13
2022-10-28T02:12:33.054Z,9.63
2022-10-28T02:15:30.374Z,10.20
2022-10-28T02:18:22.002Z,8.03
2022-10-28T02:20:53.369Z,6.17
2022-10-28T02:23:29.952Z,7.30
2022-10-28T02:25:59.758Z,6.67
2022-10-28T02:28:34.333Z,6.67
2022-10-28T02:31:06.305Z,6.00
2022-10-28T02:33:37.709Z,7.97
2022-10-28T02:36:08.141Z,9.10
2022-10-28T02:38:38.629Z,7.20
2022-10-28T02:41:10.314Z,8.17
2022-10-28T02:43:39.477Z,8.43
2022-10-28T02:46:08.142Z,8.00
2022-10-28T02:48:39.958Z,7.27
2022-10-28T02:51:11.528Z,7.33
2022-10-28T02:53:46.185Z,7.63
2022-10-28T02:56:15.237Z,7.57
2022-10-28T02:58:43.324Z,9.63
2022-10-28T03:01:11.317Z,9.73
2022-10-28T03:03:40.655Z,5.83
2022-10-28T03:06:08.624Z,12.30
2022-10-28T03:08:36.489Z,6.03
2022-10-28T03:11:04.400Z,5.57
2022-10-28T03:13:32.272Z,5.80
2022-10-28T03:16:00.136Z,11.53
2022-10-28T03:18:28.010Z,7.37
2022-10-28T03:20:59.017Z,6.13
2022-10-28T03:23:27.167Z,9.93
2022-10-28T03:25:55.077Z,7.30
2022-10-28T03:28:23.025Z,7.70
2022-10-28T03:30:50.872Z,7.27
2022-10-28T03:33:18.842Z,10.03
2022-10-28T03:35:46.720Z,6.37
2022-10-28T03:38:16.012Z,8.40
2022-10-28T03:40:43.900Z,9.17
2022-10-28T03:43:11.765Z,6.07
2022-10-28T03:45:39.645Z,5.30
2022-10-28T03:48:07.654Z,8.90
2022-10-28T03:50:35.550Z,8.27
2022-10-28T03:53:03.446Z,7.43
2022-10-28T03:55:32.712Z,7.33
2022-10-28T03:58:01.653Z,7.80
2022-10-28T04:00:29.968Z,8.10
2022-10-28T04:02:57.843Z,11.00
2022-10-28T04:05:25.817Z,8.50
2022-10-28T04:07:54.158Z,8.13
2022-10-28T04:10:22.065Z,8.73
2022-10-28T04:12:51.479Z,6.20
2022-10-28T04:15:19.415Z,8.13
2022-10-28T04:17:47.297Z,8.83
2022-10-28T04:20:15.184Z,6.20
2022-10-28T04:22:43.100Z,7.43
2022-10-28T04:25:11.422Z,8.37
2022-10-28T04:27:39.370Z,9.20
2022-10-28T04:30:12.377Z,5.90
2022-10-28T04:32:40.684Z,6.43
2022-10-28T04:35:10.085Z,6.73
2022-10-28T04:37:38.142Z,4.80
2022-10-28T04:40:07.368Z,6.33
2022-10-28T04:42:35.269Z,6.17
2022-10-28T04:45:03.201Z,7.03
2022-10-28T04:47:32.478Z,6.40
2022-10-28T04:50:00.368Z,10.77
2022-10-28T04:52:28.227Z,8.83
2022-10-28T04:54:56.548Z,8.70
2022-10-28T04:57:24.443Z,6.47
2022-10-28T04:59:52.362Z,6.63
2022-10-28T05:02:20.370Z,4.80
2022-10-28T05:04:49.700Z,5.10
2022-10-28T05:07:19.927Z,6.93
2022-10-28T05:09:50.654Z,6.20
2022-10-28T05:12:18.536Z,7.87
2022-10-28T05:14:48.031Z,8.87
2022-10-28T05:17:17.989Z,12.40
2022-10-28T05:19:46.264Z,11.77
2022-10-28T05:22:15.512Z,11.13
2022-10-28T05:24:43.412Z,13.70
2022-10-28T05:27:12.517Z,11.33
2022-10-28T05:29:40.370Z,10.10
2022-10-28T05:32:08.250Z,8.07
2022-10-28T05:34:36.238Z,8.67
2022-10-28T05:37:04.196Z,8.20
2022-10-28T05:39:33.442Z,11.30
2022-10-28T05:42:01.385Z,8.40
2022-10-28T05:44:29.282Z,7.63
2022-10-28T05:46:57.358Z,7.17
2022-10-28T05:49:25.221Z,6.37
2022-10-28T05:51:53.073Z,9.03
2022-10-28T05:54:21.115Z,7.50
2022-10-28T05:56:50.350Z,6.70
2022-10-28T05:59:18.244Z,6.47
2022-10-28T06:01:46.211Z,10.53
2022-10-28T06:04:15.370Z,11.20
2022-10-28T06:06:43.310Z,9.27
2022-10-28T06:09:11.220Z,7.73
2022-10-28T06:11:37.560Z,17.63
2022-10-28T06:14:07.036Z,16.93
2022-10-28T06:16:34.924Z,16.63
2022-10-28T06:19:02.806Z,25.10
2022-10-28T06:21:30.791Z,20.20
2022-10-28T06:23:58.664Z,16.50
2022-10-28T06:26:26.560Z,20.83
2022-10-28T06:28:54.438Z,12.97
2022-10-28T06:31:23.765Z,19.30
2022-10-28T06:33:51.665Z,18.57
2022-10-28T06:36:19.541Z,21.07
2022-10-28T06:38:47.425Z,15.63
2022-10-28T06:41:15.304Z,18.47
2022-10-28T06:43:43.280Z,28.07
2022-10-28T06:46:11.168Z,26.17
2022-10-28T06:48:41.964Z,14.40
2022-10-28T06:51:09.855Z,17.90
2022-10-28T06:53:37.760Z,16.47
2022-10-28T06:56:06.151Z,14.53
2022-10-28T06:58:34.059Z,15.57
2022-10-28T07:01:04.678Z,11.40
2022-10-28T07:03:32.982Z,20.10
2022-10-28T07:06:02.622Z,9.73
2022-10-28T07:08:30.721Z,14.13
2022-10-28T07:10:59.827Z,12.87
2022-10-28T07:13:28.120Z,16.53
2022-10-28T07:15:56.869Z,15.40
2022-10-28T07:18:26.477Z,27.37
2022-10-28T07:20:54.428Z,40.87
2022-10-28T07:23:23.670Z,25.70
2022-10-28T07:25:54.943Z,14.50
2022-10-28T07:28:23.715Z,32.53
2022-10-28T07:30:51.710Z,13.90
2022-10-28T07:33:19.667Z,9.00
2022-10-28T07:35:47.715Z,8.63
2022-10-28T07:38:15.870Z,16.67
2022-10-28T07:40:45.139Z,7.30
2022-10-28T07:43:13.079Z,14.50
2022-10-28T07:45:41.112Z,59.73
2022-10-28T07:48:09.010Z,20.60
2022-10-28T07:50:36.947Z,18.00
2022-10-28T07:53:05.003Z,7.07
2022-10-28T07:55:33.028Z,19.63
2022-10-28T07:58:02.295Z,6.53
2022-10-28T08:00:30.319Z,6.30
2022-10-28T08:02:58.190Z,6.30
2022-10-28T08:05:26.108Z,6.47
2022-10-28T08:07:54.121Z,15.30
2022-10-28T08:10:22.165Z,9.00
2022-10-28T08:12:50.122Z,7.23
2022-10-28T08:15:21.231Z,7.63
2022-10-28T08:17:52.573Z,7.50
2022-10-28T08:20:21.075Z,9.63
2022-10-28T08:22:49.102Z,8.37
2022-10-28T08:25:17.244Z,8.00
2022-10-28T08:27:45.138Z,7.67
2022-10-28T08:30:13.730Z,7.50
2022-10-28T08:32:43.059Z,7.57
2022-10-28T08:35:10.967Z,6.53
2022-10-28T08:37:38.833Z,5.80
2022-10-28T08:40:08.364Z,6.17
2022-10-28T08:42:41.124Z,5.23
2022-10-28T08:45:25.421Z,5.67
2022-10-28T08:48:03.143Z,28.87
2022-10-28T08:50:32.032Z,4.87
2022-10-28T08:53:01.514Z,5.30
2022-10-28T08:55:32.004Z,5.70
2022-10-28T08:58:02.620Z,6.33
2022-10-28T09:00:33.900Z,6.80
2022-10-28T09:03:24.451Z,12.03
2022-10-28T09:05:57.547Z,8.07
2022-10-28T09:08:28.263Z,7.33
2022-10-28T09:11:07.177Z,12.17
2022-10-28T09:13:44.311Z,9.40
2022-10-28T09:16:16.564Z,9.20
2022-10-28T09:18:56.999Z,8.93
2022-10-28T09:21:33.532Z,8.03
2022-10-28T09:24:05.562Z,8.80
2022-10-28T09:26:40.778Z,8.43
2022-10-28T09:29:18.785Z,7.50
2022-10-28T09:31:48.570Z,7.50
2022-10-28T09:34:25.040Z,7.83
2022-10-28T09:36:54.756Z,7.47
2022-10-28T09:39:28.048Z,6.90
2022-10-28T09:41:58.091Z,7.13
2022-10-28T09:44:30.062Z,6.10
2022-10-28T09:46:59.890Z,7.17
2022-10-28T09:49:31.398Z,6.90
2022-10-28T09:52:05.342Z,7.07
2022-10-28T09:54:38.019Z,7.77
2022-10-28T09:57:06.384Z,7.23
2022-10-28T09:59:34.754Z,7.30
2022-10-28T10:02:04.007Z,7.37
2022-10-28T10:04:35.710Z,6.63
2022-10-28T10:07:06.840Z,6.40
2022-10-28T10:09:35.713Z,6.63
2022-10-28T10:12:06.864Z,5.40
2022-10-28T10:14:39.674Z,6.93
2022-10-28T10:17:13.190Z,6.13
2022-10-28T10:20:03.143Z,6.03
2022-10-28T10:22:32.363Z,5.67
2022-10-28T10:25:00.260Z,8.83
2022-10-28T10:27:28.907Z,7.67
2022-10-28T10:29:58.040Z,5.90
2022-10-28T10:32:27.615Z,6.23
2022-10-28T10:35:02.604Z,6.00
2022-10-28T10:37:32.040Z,6.43
2022-10-28T10:40:06.199Z,6.07
2022-10-28T10:42:39.267Z,5.93
2022-10-28T10:45:22.136Z,5.50
2022-10-28T10:47:50.051Z,5.93
2022-10-28T10:50:26.793Z,6.97
2022-10-28T10:52:57.040Z,6.00
2022-10-28T10:55:32.142Z,6.50
2022-10-28T10:58:00.285Z,6.07
2022-10-28T11:00:33.008Z,6.10
2022-10-28T11:03:01.931Z,7.40
2022-10-28T11:05:35.721Z,7.67
2022-10-28T11:08:07.758Z,7.70
2022-10-28T11:10:36.344Z,7.80
2022-10-28T11:13:07.096Z,7.17
2022-10-28T11:15:35.036Z,8.47
2022-10-28T11:18:04.713Z,8.00
2022-10-28T11:20:44.102Z,8.93
2022-10-28T11:23:23.175Z,8.27
2022-10-28T11:25:51.927Z,8.90
2022-10-28T11:28:36.964Z,8.87
2022-10-28T11:31:18.444Z,7.73
2022-10-28T11:33:52.520Z,8.03
2022-10-28T11:36:25.108Z,9.67
2022-10-28T11:39:19.979Z,14.63
2022-10-28T11:41:57.013Z,7.73
2022-10-28T11:44:34.415Z,7.40
2022-10-28T11:47:11.593Z,7.87
2022-10-28T11:50:03.487Z,8.10
2022-10-28T11:52:45.609Z,11.57
2022-10-28T11:55:22.764Z,10.60
2022-10-28T11:57:58.492Z,8.60
2022-10-28T12:00:41.056Z,9.20
2022-10-28T12:03:25.002Z,9.30
2022-10-28T12:05:56.157Z,12.97
2022-10-28T12:08:37.271Z,10.67
2022-10-28T12:11:18.957Z,10.20
2022-10-28T12:13:54.073Z,10.10
2022-10-28T12:16:26.474Z,11.17
2022-10-28T12:18:57.856Z,14.13
2022-10-28T12:21:31.511Z,12.13
2022-10-28T12:24:01.600Z,10.30
2022-10-28T12:26:36.164Z,11.60
2022-10-28T12:29:06.453Z,15.27
2022-10-28T12:31:44.375Z,12.47
2022-10-28T12:34:15.326Z,11.63
2022-10-28T12:36:45.341Z,11.23
2022-10-28T12:39:19.220Z,13.57
2022-10-28T12:41:54.397Z,13.37
2022-10-28T12:44:23.676Z,12.47
2022-10-28T12:46:59.317Z,11.37
2022-10-28T12:49:36.632Z,12.00
2022-10-28T12:52:13.919Z,14.00
2022-10-28T12:54:53.762Z,12.73
2022-10-28T12:57:23.606Z,15.40
2022-10-28T12:59:54.760Z,13.00
2022-10-28T13:02:26.766Z,12.40
2022-10-28T13:04:54.757Z,12.07
2022-10-28T13:07:34.940Z,18.70
2022-10-28T13:10:13.108Z,14.77
2022-10-28T13:13:09.222Z,12.00
2022-10-28T13:15:57.872Z,15.40
2022-10-28T13:18:46.353Z,12.87
2022-10-28T13:21:26.000Z,12.47
2022-10-28T13:23:56.536Z,14.27
2022-10-28T13:26:28.468Z,12.70
2022-10-28T13:28:58.615Z,12.30
2022-10-28T13:31:37.928Z,12.80
2022-10-28T13:34:06.063Z,14.10
2022-10-28T13:36:36.267Z,12.40
2022-10-28T13:39:06.267Z,12.63
2022-10-28T13:41:37.747Z,11.97
2022-10-28T13:44:29.488Z,12.63
2022-10-28T13:47:27.592Z,15.60
2022-10-28T13:50:16.052Z,14.67
2022-10-28T13:52:45.320Z,12.37
2022-10-28T13:55:24.101Z,13.27
2022-10-28T13:58:00.070Z,13.47
2022-10-28T14:00:38.900Z,19.40
2022-10-28T14:03:08.370Z,19.47
2022-10-28T14:06:00.766Z,15.13
2022-10-28T14:08:31.144Z,18.00
2022-10-28T14:11:04.732Z,13.93
2022-10-28T14:13:35.330Z,14.30
2022-10-28T14:16:25.129Z,12.87
2022-10-28T14:18:56.846Z,14.27
2022-10-28T14:21:25.068Z,13.77
2022-10-28T14:24:31.809Z,13.03
2022-10-28T14:27:42.203Z,16.63
2022-10-28T14:30:24.701Z,15.07
2022-10-28T14:33:00.631Z,15.83
2022-10-28T14:35:33.788Z,15.93
2022-10-28T14:38:45.889Z,17.10
2022-10-28T14:41:27.686Z,14.77
2022-10-28T14:44:04.874Z,16.00
2022-10-28T14:46:45.808Z,15.80
2022-10-28T14:49:19.149Z,15.63
2022-10-28T14:51:47.190Z,15.83
2022-10-28T14:54:17.501Z,17.80
2022-10-28T14:56:45.580Z,20.57
2022-10-28T14:59:24.763Z,21.27
2022-10-28T15:02:01.077Z,15.73
2022-10-28T15:04:29.805Z,18.20
2022-10-28T15:06:58.145Z,16.43
2022-10-28T15:09:28.852Z,17.93
2022-10-28T15:11:59.125Z,17.50
2022-10-28T15:14:36.768Z,15.10
2022-10-28T15:17:14.708Z,17.47
2022-10-28T15:19:43.404Z,17.47
2022-10-28T15:22:17.671Z,18.10
2022-10-28T15:24:54.956Z,16.77
2022-10-28T15:27:23.544Z,17.27
2022-10-28T15:29:51.977Z,17.13
2022-10-28T15:32:29.984Z,15.37
2022-10-28T15:34:58.319Z,20.77
2022-10-28T15:37:27.827Z,15.37
2022-10-28T15:40:12.700Z,16.43
2022-10-28T15:42:42.717Z,17.20
2022-10-28T15:45:20.905Z,20.63
2022-10-28T15:47:50.207Z,21.07
2022-10-28T15:50:28.821Z,21.37
2022-10-28T15:53:32.464Z,16.10
2022-10-28T15:56:18.783Z,18.07
2022-10-28T15:58:47.851Z,17.87
2022-10-28T16:01:30.606Z,20.10
2022-10-28T16:03:58.731Z,18.40
2022-10-28T16:06:28.647Z,21.03
2022-10-28T16:09:07.044Z,22.63
2022-10-28T16:11:39.278Z,20.63
2022-10-28T16:14:20.908Z,21.53
2022-10-28T16:16:48.856Z,27.13
2022-10-28T16:19:26.467Z,32.77
2022-10-28T16:21:54.342Z,84.33
2022-10-28T16:24:23.883Z,66.63
2022-10-28T16:26:51.745Z,202.80
2022-10-28T16:29:19.631Z,115.87
2022-10-28T16:31:49.984Z,195.93
2022-10-28T16:34:17.999Z,170.10
2022-10-28T16:36:45.956Z,106.50
2022-10-28T16:39:14.289Z,110.40
2022-10-28T16:41:43.647Z,97.20
2022-10-28T16:44:16.806Z,117.90
2022-10-28T16:46:45.101Z,214.17
2022-10-28T16:49:13.081Z,65.67
2022-10-28T16:51:41.006Z,50.23
2022-10-28T16:54:12.064Z,94.47
2022-10-28T16:56:39.947Z,51.30
2022-10-28T16:59:09.319Z,116.20
2022-10-28T17:01:37.295Z,172.03
2022-10-28T17:04:05.631Z,38.67
2022-10-28T17:06:33.514Z,82.77
2022-10-28T17:09:03.274Z,145.93
2022-10-28T17:14:04.508Z,135.27
2022-10-28T17:16:35.162Z,132.17
2022-10-28T17:19:04.971Z,133.20
2022-10-28T17:21:32.880Z,96.00
2022-10-28T17:24:00.779Z,223.40
2022-10-28T17:26:28.683Z,224.63
2022-10-28T17:28:56.582Z,174.53
2022-10-28T17:31:25.684Z,116.30
2022-10-28T17:33:58.368Z,74.03
2022-10-28T17:36:26.318Z,84.57
2022-10-28T17:38:54.230Z,66.33
2022-10-28T17:41:22.159Z,60.53
2022-10-28T17:43:53.606Z,30.60
2022-10-28T17:46:22.077Z,44.63
2022-10-28T17:48:50.176Z,20.20
2022-10-28T17:51:20.979Z,32.03
2022-10-28T17:53:53.812Z,31.77
2022-10-28T17:56:21.882Z,45.73
2022-10-28T17:58:52.837Z,30.47
2022-10-28T18:01:21.248Z,28.20
2022-10-28T18:03:50.266Z,33.23
2022-10-28T18:06:19.542Z,34.57
2022-10-28T18:08:47.569Z,73.97
2022-10-28T18:11:16.991Z,29.73
2022-10-28T18:13:46.113Z,32.37
2022-10-28T18:16:15.658Z,40.60
2022-10-28T18:18:43.756Z,37.83
2022-10-28T18:21:12.417Z,35.53
2022-10-28T18:23:41.977Z,38.90
2022-10-28T18:26:13.050Z,37.10
2022-10-28T18:28:42.283Z,56.97
2022-10-28T18:31:12.596Z,34.03
2022-10-28T18:33:40.904Z,48.67
2022-10-28T18:36:11.824Z,35.80
2022-10-28T18:38:41.204Z,51.93
2022-10-28T18:41:11.745Z,46.77
2022-10-28T18:43:39.791Z,81.93
2022-10-28T18:46:08.118Z,81.00
2022-10-28T18:48:36.092Z,37.17
2022-10-28T18:51:06.812Z,82.17
2022-10-28T18:53:37.498Z,120.53
2022-10-28T18:56:08.121Z,79.57
2022-10-28T18:58:36.379Z,47.23
2022-10-28T19:01:06.028Z,30.97
2022-10-28T19:03:33.988Z,24.47
2022-10-28T19:06:03.375Z,33.87
2022-10-28T19:08:31.244Z,33.90
2022-10-28T19:10:59.623Z,44.13
2022-10-28T19:13:28.907Z,33.03
2022-10-28T19:15:56.906Z,33.23
2022-10-28T19:18:24.860Z,22.87
2022-10-28T19:20:56.798Z,43.13
2022-10-28T19:23:24.779Z,39.93
2022-10-28T19:25:56.665Z,35.63
2022-10-28T19:28:24.915Z,19.53
2022-10-28T19:31:02.289Z,36.93
2022-10-28T19:33:30.834Z,38.67
2022-10-28T19:36:06.553Z,40.47
2022-10-28T19:38:36.787Z,50.43
2022-10-28T19:41:06.639Z,39.90
2022-10-28T19:43:34.833Z,36.23
2022-10-28T19:46:10.285Z,29.90
2022-10-28T19:48:38.973Z,23.50
2022-10-28T19:51:07.315Z,35.63
2022-10-28T19:53:35.378Z,24.30
2022-10-28T19:56:04.971Z,25.13
2022-10-28T19:58:33.556Z,28.57
2022-10-28T20:01:03.504Z,37.33
2022-10-28T20:03:35.193Z,20.00
2022-10-28T20:06:06.338Z,52.27
2022-10-28T20:08:35.355Z,31.37
2022-10-28T20:11:04.414Z,37.90
2022-10-28T20:13:32.463Z,25.47
2022-10-28T20:16:02.744Z,18.97
2022-10-28T20:18:32.636Z,44.83
2022-10-28T20:21:05.209Z,24.07
2022-10-28T20:23:33.322Z,29.47
2022-10-28T20:26:01.296Z,45.47
2022-10-28T20:28:29.405Z,51.80
2022-10-28T20:30:59.060Z,14.60
2022-10-28T20:33:27.526Z,51.13
2022-10-28T20:35:57.090Z,77.13
2022-10-28T20:38:25.318Z,37.37
2022-10-28T20:40:54.397Z,28.20
2022-10-28T20:43:23.912Z,16.67
2022-10-28T20:45:59.869Z,31.63
2022-10-28T20:48:28.289Z,26.50
2022-10-28T20:50:59.056Z,36.87
2022-10-28T20:53:28.602Z,43.67
2022-10-28T20:55:57.365Z,37.40
2022-10-28T20:58:26.818Z,27.57
2022-10-28T21:00:55.096Z,33.63
2022-10-28T21:03:23.184Z,19.20
2022-10-28T21:05:51.066Z,26.33
2022-10-28T21:08:20.370Z,19.87
2022-10-28T21:10:48.299Z,26.60
2022-10-28T21:13:16.398Z,26.83
2022-10-28T21:15:45.663Z,31.27
2022-10-28T21:18:13.793Z,22.73
2022-10-28T21:20:41.700Z,21.43
2022-10-28T21:23:09.583Z,55.80
2022-10-28T21:25:38.849Z,23.80
2022-10-28T21:28:07.280Z,54.27
2022-10-28T21:30:35.193Z,21.47
2022-10-28T21:33:03.875Z,22.30
2022-10-28T21:35:31.748Z,60.20
2022-10-28T21:37:59.670Z,17.83
2022-10-28T21:40:27.547Z,21.53
2022-10-28T21:42:56.806Z,26.83
2022-10-28T21:45:25.761Z,36.00
2022-10-28T21:47:55.656Z,46.27
2022-10-28T21:50:23.890Z,16.40
2022-10-28T21:52:51.842Z,21.63
2022-10-28T21:55:33.851Z,28.80
2022-10-28T21:58:09.009Z,20.30
2022-10-28T22:00:36.970Z,49.93
2022-10-28T22:03:04.955Z,22.03
2022-10-28T22:05:33.089Z,23.73
2022-10-28T22:08:03.201Z,36.53
2022-10-28T22:10:32.906Z,35.23
2022-10-28T22:13:00.779Z,27.80
2022-10-28T22:15:30.027Z,31.93
2022-10-28T22:17:58.154Z,18.57
2022-10-28T22:22:59.174Z,19.00
2022-10-28T22:25:27.060Z,32.70
2022-10-28T22:27:54.950Z,15.90
2022-10-28T22:30:22.864Z,21.23
2022-10-28T22:32:52.295Z,44.27
2022-10-28T22:35:20.329Z,15.80
2022-10-28T22:37:48.199Z,28.27
2022-10-28T22:40:16.312Z,42.00
2022-10-28T22:42:44.191Z,22.53
2022-10-28T22:45:12.076Z,16.73
2022-10-28T22:47:39.968Z,20.43
2022-10-28T22:50:10.087Z,17.40
2022-10-28T22:52:38.014Z,21.17
2022-10-28T22:55:06.402Z,14.53
2022-10-28T22:57:34.287Z,13.90
2022-10-28T23:00:02.235Z,16.70
2022-10-28T23:02:31.808Z,20.60
2022-10-28T23:04:59.782Z,25.63
2022-10-28T23:07:29.149Z,36.73
2022-10-28T23:09:58.798Z,76.10
2022-10-28T23:12:26.709Z,23.33
2022-10-28T23:14:54.587Z,57.43
2022-10-28T23:17:22.443Z,20.83
2022-10-28T23:19:50.335Z,29.90
2022-10-28T23:22:18.211Z,21.67
2022-10-28T23:24:47.495Z,26.23
2022-10-28T23:27:15.364Z,42.73
2022-10-28T23:29:43.291Z,32.10
2022-10-28T23:32:11.158Z,17.80
2022-10-28T23:34:39.059Z,67.70
2022-10-28T23:37:06.940Z,15.00
2022-10-28T23:39:34.825Z,18.40
2022-10-28T23:42:04.094Z,15.40
2022-10-28T23:44:31.957Z,101.93
2022-10-28T23:46:59.883Z,33.87
2022-10-28T23:49:27.735Z,22.30
2022-10-28T23:51:55.664Z,25.90
2022-10-28T23:54:23.543Z,57.30
2022-10-28T23:56:51.973Z,24.77
2022-10-28T23:59:21.285Z,27.90
